Time;durP1;ratioP1;P1;durP2;ratioP2;P2;SDS_P1;SDS_P2;PMS_P1;PMS_P2;Temp;Humidity;BMP_temperature;BMP_pressure;BME280_temperature;BME280_humidity;BME280_pressure;Samples;Min_cycle;Max_cycle;Signal;HPM_P1;HPM_P2
2023/12/03 00:00:10;;;;;;;1.42;1.33;;;-1.40;99.90;;;;;;5001428;28;20045;-73
2023/12/03 00:02:37;;;;;;;3.05;1.80;;;-1.50;99.90;;;;;;4995741;28;20116;-72
2023/12/03 00:05:03;;;;;;;2.60;2.25;;;-1.40;99.90;;;;;;4991857;28;20034;-72
2023/12/03 00:07:31;;;;;;;2.72;1.52;;;-1.50;99.90;;;;;;4986866;28;20057;-72
2023/12/03 00:09:57;;;;;;;4.20;1.13;;;-1.60;99.90;;;;;;5010302;28;20029;-73
2023/12/03 00:12:23;;;;;;;1.75;1.65;;;-1.60;99.90;;;;;;5010942;28;20033;-72
2023/12/03 00:14:49;;;;;;;1.75;1.30;;;-1.70;99.90;;;;;;5007871;28;20034;-72
2023/12/03 00:17:15;;;;;;;1.45;1.35;;;-1.70;99.90;;;;;;5010827;28;20095;-72
2023/12/03 00:19:41;;;;;;;5.40;2.58;;;-1.80;99.90;;;;;;5011056;28;20030;-72
2023/12/03 00:22:08;;;;;;;2.88;2.10;;;-1.80;99.90;;;;;;5002733;28;20022;-72
2023/12/03 00:24:34;;;;;;;0.80;0.80;;;-1.80;99.90;;;;;;4993585;28;20033;-72
2023/12/03 00:27:00;;;;;;;2.70;2.40;;;-1.80;99.90;;;;;;5010939;28;20068;-72
2023/12/03 00:29:26;;;;;;;1.30;1.23;;;-1.80;99.90;;;;;;5006679;28;20057;-72
2023/12/03 00:31:55;;;;;;;1.42;1.33;;;-1.90;99.90;;;;;;4982883;28;20553;-71
2023/12/03 00:34:20;;;;;;;7.88;2.58;;;-1.90;99.90;;;;;;5003563;28;20089;-71
2023/12/03 00:36:46;;;;;;;2.60;2.08;;;-1.90;99.90;;;;;;5010519;28;20116;-71
2023/12/03 00:39:12;;;;;;;1.55;1.45;;;-1.80;99.90;;;;;;5010815;28;20026;-72
2023/12/03 00:41:38;;;;;;;1.02;1.02;;;-1.90;99.90;;;;;;5004460;28;20037;-72
2023/12/03 00:44:04;;;;;;;2.67;2.03;;;-1.90;99.90;;;;;;5008737;28;20022;-72
2023/12/03 00:46:30;;;;;;;1.65;1.55;;;-1.90;99.90;;;;;;4990072;28;20041;-72
2023/12/03 00:48:56;;;;;;;3.40;3.13;;;-1.90;99.90;;;;;;5022913;28;20025;-72
2023/12/03 00:51:22;;;;;;;7.22;2.05;;;-1.90;99.90;;;;;;5009293;28;20569;-72
2023/12/03 00:53:48;;;;;;;0.65;0.65;;;-1.90;99.90;;;;;;5009454;28;20034;-72
2023/12/03 00:56:13;;;;;;;3.03;2.72;;;-1.90;99.90;;;;;;5009939;28;20064;-72
2023/12/03 00:58:39;;;;;;;2.25;2.05;;;-2.00;99.90;;;;;;5011447;28;20057;-72
2023/12/03 01:01:05;;;;;;;1.13;1.00;;;-2.10;99.90;;;;;;5009767;28;20562;-72
2023/12/03 01:03:31;;;;;;;1.50;1.40;;;-2.00;99.90;;;;;;5007194;28;20026;-72
2023/12/03 01:05:57;;;;;;;2.67;2.47;;;-2.00;99.90;;;;;;5007534;28;20025;-72
2023/12/03 01:08:23;;;;;;;2.08;1.98;;;-2.00;99.90;;;;;;4999727;28;20030;-72
2023/12/03 01:10:49;;;;;;;2.42;1.85;;;-2.00;99.90;;;;;;5006395;28;20037;-72
2023/12/03 01:13:15;;;;;;;4.00;2.28;;;-2.00;99.90;;;;;;5002790;28;20060;-72
2023/12/03 01:15:43;;;;;;;3.10;1.95;;;-2.10;99.90;;;;;;5004572;28;20417;-72
2023/12/03 01:18:10;;;;;;;3.08;1.90;;;-2.00;99.90;;;;;;4986508;28;20029;-72
2023/12/03 01:20:36;;;;;;;8.00;3.00;;;-2.10;99.90;;;;;;5011766;28;20030;-71
2023/12/03 01:23:02;;;;;;;1.70;1.60;;;-2.10;99.90;;;;;;5024053;28;20032;-71
2023/12/03 01:25:28;;;;;;;3.55;3.25;;;-2.10;99.90;;;;;;5010129;28;20033;-71
2023/12/03 01:27:53;;;;;;;1.42;1.33;;;-2.10;99.90;;;;;;5011241;28;20037;-72
2023/12/03 01:30:19;;;;;;;1.55;1.33;;;-2.20;99.90;;;;;;5009974;28;20037;-72
2023/12/03 01:32:45;;;;;;;5.72;3.13;;;-2.20;99.90;;;;;;5009587;28;20498;-72
2023/12/03 01:35:11;;;;;;;0.70;0.70;;;-2.20;99.90;;;;;;5010150;28;20057;-71
2023/12/03 01:37:37;;;;;;;2.83;2.20;;;-2.20;99.90;;;;;;5003878;28;20111;-72
2023/12/03 01:40:03;;;;;;;1.67;1.58;;;-2.20;99.90;;;;;;5009522;28;20030;-72
2023/12/03 01:42:29;;;;;;;1.75;1.35;;;-2.30;99.90;;;;;;5006196;28;20486;-72
2023/12/03 01:44:55;;;;;;;1.52;1.42;;;-2.20;99.90;;;;;;5007920;28;20194;-72
2023/12/03 01:47:21;;;;;;;2.97;2.65;;;-2.30;99.90;;;;;;5008847;28;20067;-72
2023/12/03 01:49:48;;;;;;;6.90;3.20;;;-2.20;99.90;;;;;;5008472;28;20124;-72
2023/12/03 01:52:15;;;;;;;5.95;3.80;;;-2.20;99.90;;;;;;5007550;28;20049;-72
2023/12/03 01:54:44;;;;;;;3.63;3.00;;;-2.30;99.90;;;;;;5008006;28;20074;-72
2023/12/03 01:57:11;;;;;;;4.90;3.58;;;-2.30;99.90;;;;;;5007441;28;20061;-72
2023/12/03 01:59:37;;;;;;;1.40;1.30;;;-2.30;99.90;;;;;;4991353;28;20425;-72
2023/12/03 02:02:03;;;;;;;3.42;1.05;;;-2.30;99.90;;;;;;4989025;28;20183;-72
2023/12/03 02:04:29;;;;;;;1.83;1.70;;;-2.30;99.90;;;;;;5005322;28;20052;-72
2023/12/03 02:06:55;;;;;;;0.65;0.65;;;-2.30;99.90;;;;;;4999489;28;20034;-72
2023/12/03 02:09:21;;;;;;;1.33;1.23;;;-2.30;99.90;;;;;;5001124;28;20042;-72
2023/12/03 02:11:47;;;;;;;3.45;2.55;;;-2.30;99.90;;;;;;5007047;28;20121;-72
2023/12/03 02:14:14;;;;;;;3.05;2.45;;;-2.30;99.90;;;;;;5007282;28;20061;-72
2023/12/03 02:16:47;;;;;;;1.00;1.00;;;-2.30;99.90;;;;;;5007267;28;20541;-72
2023/12/03 02:19:14;;;;;;;2.15;1.88;;;-2.30;99.90;;;;;;5006562;28;20035;-72
2023/12/03 02:21:41;;;;;;;3.72;1.67;;;-2.30;99.90;;;;;;5008861;28;20037;-72
2023/12/03 02:24:07;;;;;;;3.58;2.83;;;-2.30;99.90;;;;;;4991312;28;20026;-72
2023/12/03 02:26:32;;;;;;;26.27;2.58;;;-2.30;99.90;;;;;;5007250;28;20033;-72
2023/12/03 02:28:58;;;;;;;3.92;2.05;;;-2.40;99.90;;;;;;5007086;28;20022;-72
2023/12/03 02:31:25;;;;;;;1.92;1.75;;;-2.30;99.90;;;;;;5007005;28;20034;-72
2023/12/03 02:34:04;;;;;;;0.68;0.68;;;-2.40;99.90;;;;;;4991321;28;20521;-72
2023/12/03 02:36:30;;;;;;;3.70;2.97;;;-2.30;99.90;;;;;;5007298;28;20255;-72
2023/12/03 02:38:56;;;;;;;6.13;2.25;;;-2.40;99.90;;;;;;4991202;28;20482;-72
2023/12/03 02:41:21;;;;;;;0.85;0.65;;;-2.40;99.90;;;;;;5008866;28;20034;-72
2023/12/03 02:43:47;;;;;;;1.85;1.60;;;-2.40;99.90;;;;;;5009315;28;20030;-72
2023/12/03 02:46:13;;;;;;;6.72;2.80;;;-2.40;99.90;;;;;;4998742;28;20037;-72
2023/12/03 02:48:38;;;;;;;0.80;0.80;;;-2.40;99.90;;;;;;5000363;28;20041;-72
2023/12/03 02:51:05;;;;;;;2.83;2.53;;;-2.40;99.90;;;;;;4998344;28;20116;-72
2023/12/03 02:53:31;;;;;;;2.03;1.88;;;-2.40;99.90;;;;;;5001656;28;20042;-72
2023/12/03 02:55:58;;;;;;;2.08;1.98;;;-2.50;99.90;;;;;;4998242;28;20033;-72
2023/12/03 02:58:24;;;;;;;5.45;2.05;;;-2.50;99.90;;;;;;4987470;28;20061;-72
2023/12/03 03:00:50;;;;;;;1.73;1.65;;;-2.50;99.90;;;;;;4996716;28;20508;-72
2023/12/03 03:03:16;;;;;;;4.30;3.40;;;-2.50;99.90;;;;;;5009820;28;20032;-72
2023/12/03 03:05:41;;;;;;;4.25;3.90;;;-2.40;99.90;;;;;;5010193;28;20116;-72
2023/12/03 03:08:07;;;;;;;4.85;4.45;;;-2.40;99.90;;;;;;5003211;28;20472;-72
2023/12/03 03:10:33;;;;;;;2.08;1.90;;;-2.40;99.90;;;;;;5006999;28;20061;-72
2023/12/03 03:12:58;;;;;;;1.98;1.35;;;-2.40;99.90;;;;;;5006970;28;20490;-72
2023/12/03 03:15:24;;;;;;;2.28;2.08;;;-2.50;99.90;;;;;;5010333;28;20094;-72
2023/12/03 03:17:50;;;;;;;1.08;1.05;;;-2.60;99.90;;;;;;5001610;28;20026;-72
2023/12/03 03:20:17;;;;;;;4.07;3.78;;;-2.70;99.90;;;;;;5020083;28;20037;-72
2023/12/03 03:22:42;;;;;;;1.45;1.35;;;-2.60;99.90;;;;;;4994479;28;20081;-72
2023/12/03 03:25:10;;;;;;;2.10;1.95;;;-2.60;99.90;;;;;;5007468;28;20061;-72
2023/12/03 03:27:35;;;;;;;3.15;2.85;;;-2.60;99.90;;;;;;5000917;28;20045;-72
2023/12/03 03:30:01;;;;;;;1.52;1.05;;;-2.60;99.90;;;;;;5003937;28;20037;-72
2023/12/03 03:32:27;;;;;;;1.05;1.02;;;-2.70;99.90;;;;;;5010119;28;20029;-72
2023/12/03 03:34:52;;;;;;;2.78;2.58;;;-2.60;99.90;;;;;;5010816;28;20037;-72
2023/12/03 03:37:18;;;;;;;3.05;2.85;;;-2.70;99.90;;;;;;5010906;28;20160;-72
2023/12/03 03:39:44;;;;;;;2.45;1.70;;;-2.60;99.90;;;;;;5011175;28;20120;-72
2023/12/03 03:42:10;;;;;;;2.10;2.00;;;-2.60;99.90;;;;;;5009799;28;20029;-72
2023/12/03 03:44:35;;;;;;;5.15;3.25;;;-2.60;99.90;;;;;;5024971;28;20127;-72
2023/12/03 03:47:01;;;;;;;3.92;2.88;;;-2.60;99.90;;;;;;5007337;28;20117;-72
2023/12/03 03:49:27;;;;;;;4.93;3.30;;;-2.60;99.90;;;;;;5014877;28;20037;-72
2023/12/03 03:51:54;;;;;;;3.05;2.58;;;-2.70;99.90;;;;;;5026096;28;20163;-72
2023/12/03 03:54:19;;;;;;;2.65;2.45;;;-2.70;99.90;;;;;;4986527;28;20041;-72
2023/12/03 03:56:47;;;;;;;2.08;1.95;;;-2.70;99.90;;;;;;5009672;28;20025;-72
2023/12/03 03:59:13;;;;;;;4.22;2.08;;;-2.70;99.90;;;;;;5002278;28;20026;-72
2023/12/03 04:01:43;;;;;;;1.67;1.55;;;-2.60;99.90;;;;;;5008859;28;20030;-72
2023/12/03 04:04:10;;;;;;;2.33;2.13;;;-2.60;99.90;;;;;;4979906;28;20031;-72
2023/12/03 04:06:44;;;;;;;3.50;3.15;;;-2.60;99.90;;;;;;5006681;28;20026;-72
2023/12/03 04:09:11;;;;;;;0.52;0.52;;;-2.60;99.90;;;;;;5006836;28;20534;-72
2023/12/03 04:11:41;;;;;;;0.52;0.52;;;-2.60;99.90;;;;;;4980731;28;20076;-72
2023/12/03 04:14:08;;;;;;;1.67;1.57;;;-2.60;99.90;;;;;;5001415;28;20033;-72
2023/12/03 04:16:37;;;;;;;1.02;1.02;;;-2.60;99.90;;;;;;4999914;28;20152;-72
2023/12/03 04:19:03;;;;;;;3.15;2.95;;;-2.60;99.90;;;;;;4994904;28;20117;-72
2023/12/03 04:21:29;;;;;;;1.33;1.30;;;-2.70;99.90;;;;;;4992983;28;20113;-72
2023/12/03 04:23:57;;;;;;;2.95;2.63;;;-2.70;99.90;;;;;;5008784;28;20030;-72
2023/12/03 04:26:24;;;;;;;4.22;1.88;;;-2.60;99.90;;;;;;5005677;28;20022;-72
2023/12/03 04:28:50;;;;;;;2.65;2.42;;;-2.70;99.90;;;;;;5003617;28;20172;-72
2023/12/03 04:31:19;;;;;;;1.13;1.13;;;-2.70;99.90;;;;;;5005799;28;20277;-72
2023/12/03 04:33:45;;;;;;;2.83;1.25;;;-2.70;99.90;;;;;;5014980;28;20026;-73
2023/12/03 04:36:12;;;;;;;2.13;1.77;;;-2.70;99.90;;;;;;4980253;28;20026;-72
2023/12/03 04:38:38;;;;;;;3.90;3.60;;;-2.70;99.90;;;;;;5001363;28;20030;-72
2023/12/03 04:41:04;;;;;;;1.85;1.75;;;-2.70;99.90;;;;;;4997330;28;20061;-72
2023/12/03 04:43:30;;;;;;;1.70;1.60;;;-2.80;99.90;;;;;;4997123;28;20076;-72
2023/12/03 04:45:56;;;;;;;3.60;2.05;;;-2.70;99.90;;;;;;5009977;28;20034;-72
2023/12/03 04:48:22;;;;;;;10.18;1.60;;;-2.70;99.90;;;;;;4986908;28;20077;-72
2023/12/03 04:50:48;;;;;;;2.60;2.35;;;-2.70;99.90;;;;;;5025107;28;20432;-72
2023/12/03 04:53:13;;;;;;;3.25;2.90;;;-2.70;99.90;;;;;;5015149;28;20137;-72
2023/12/03 04:55:39;;;;;;;1.55;1.38;;;-2.80;99.90;;;;;;5007791;28;20528;-72
2023/12/03 04:58:05;;;;;;;10.00;4.50;;;-2.80;99.90;;;;;;5008743;28;20114;-72
2023/12/03 05:00:31;;;;;;;2.53;1.38;;;-2.70;99.90;;;;;;5008288;28;20018;-72
2023/12/03 05:02:57;;;;;;;1.70;1.60;;;-2.70;99.90;;;;;;5006180;28;20026;-72
2023/12/03 05:05:22;;;;;;;5.25;3.55;;;-2.70;99.90;;;;;;5005660;28;20030;-72
2023/12/03 05:07:48;;;;;;;2.53;2.30;;;-2.80;99.90;;;;;;5008915;28;20038;-72
2023/12/03 05:10:14;;;;;;;3.42;2.88;;;-2.90;99.90;;;;;;5009311;28;20414;-73
2023/12/03 05:12:40;;;;;;;2.67;2.38;;;-2.90;99.90;;;;;;5008939;28;20034;-72
2023/12/03 05:15:06;;;;;;;5.15;1.50;;;-2.90;99.90;;;;;;5006135;28;20038;-72
2023/12/03 05:17:32;;;;;;;2.90;2.70;;;-2.90;99.90;;;;;;5002426;28;20042;-72
2023/12/03 05:19:57;;;;;;;4.30;3.30;;;-2.90;99.90;;;;;;5004484;28;20069;-72
2023/12/03 05:22:23;;;;;;;4.20;3.83;;;-2.90;99.90;;;;;;5007722;28;20041;-72
2023/12/03 05:24:49;;;;;;;1.33;1.23;;;-3.00;99.90;;;;;;5009556;28;20042;-72
2023/12/03 05:27:14;;;;;;;3.00;2.67;;;-3.00;99.90;;;;;;5000880;28;20113;-72
2023/12/03 05:29:43;;;;;;;3.20;2.90;;;-3.00;99.90;;;;;;5007006;28;20038;-72
2023/12/03 05:32:09;;;;;;;1.55;1.20;;;-3.00;99.90;;;;;;5005051;28;20030;-72
2023/12/03 05:34:35;;;;;;;1.92;1.80;;;-3.00;99.90;;;;;;5002864;28;20053;-72
2023/12/03 05:37:01;;;;;;;5.07;2.47;;;-3.10;99.90;;;;;;5006597;28;20442;-72
2023/12/03 05:39:27;;;;;;;6.93;3.20;;;-3.10;99.90;;;;;;5008742;28;20037;-72
2023/12/03 05:41:52;;;;;;;8.75;1.65;;;-3.00;99.90;;;;;;5001976;28;20471;-70
2023/12/03 05:44:18;;;;;;;1.55;1.45;;;-3.00;99.90;;;;;;5003196;28;20121;-72
2023/12/03 05:46:44;;;;;;;2.35;2.20;;;-3.00;99.90;;;;;;4999452;28;20113;-69
2023/12/03 05:49:10;;;;;;;7.13;2.75;;;-3.00;99.90;;;;;;5002245;28;20048;-69
2023/12/03 05:51:35;;;;;;;4.07;2.47;;;-3.10;99.90;;;;;;5002244;28;20117;-69
2023/12/03 05:54:01;;;;;;;6.22;2.88;;;-3.00;99.90;;;;;;4984837;28;20116;-69
2023/12/03 05:56:28;;;;;;;3.83;2.25;;;-3.00;99.90;;;;;;5020422;28;20032;-70
2023/12/03 05:58:53;;;;;;;5.55;4.97;;;-3.00;99.90;;;;;;5018915;28;20033;-70
2023/12/03 06:01:24;;;;;;;1.55;1.30;;;-3.00;99.90;;;;;;5021694;28;20026;-68
2023/12/03 06:03:50;;;;;;;5.38;3.03;;;-3.00;99.90;;;;;;5006620;28;20029;-69
2023/12/03 06:06:16;;;;;;;2.97;1.10;;;-3.10;99.90;;;;;;5020719;28;20155;-69
2023/12/03 06:08:42;;;;;;;1.55;1.48;;;-3.10;99.90;;;;;;5002245;28;20029;-68
2023/12/03 06:11:08;;;;;;;10.57;3.95;;;-3.10;99.90;;;;;;5020974;28;20041;-69
2023/12/03 06:13:34;;;;;;;2.50;2.30;;;-3.10;99.90;;;;;;5026595;28;20039;-69
2023/12/03 06:16:00;;;;;;;2.15;2.05;;;-3.10;99.90;;;;;;5004127;28;20038;-68
2023/12/03 06:18:27;;;;;;;3.75;1.65;;;-3.10;99.90;;;;;;5020889;28;20076;-68
2023/12/03 06:20:53;;;;;;;2.72;2.47;;;-3.10;99.90;;;;;;5020179;28;20796;-67
2023/12/03 06:23:18;;;;;;;2.10;1.60;;;-3.20;99.90;;;;;;5020896;28;20017;-68
2023/12/03 06:25:44;;;;;;;5.00;2.83;;;-3.30;99.90;;;;;;5023729;28;20156;-68
2023/12/03 06:28:10;;;;;;;4.13;2.75;;;-3.30;99.90;;;;;;5025227;28;20091;-68
2023/12/03 06:30:36;;;;;;;2.10;2.00;;;-3.40;99.90;;;;;;5024506;28;20433;-68
2023/12/03 06:33:02;;;;;;;7.68;2.90;;;-3.40;99.90;;;;;;5024474;28;20048;-68
2023/12/03 06:35:28;;;;;;;4.68;1.48;;;-3.40;99.90;;;;;;5026755;28;20025;-68
2023/12/03 06:37:54;;;;;;;6.43;4.18;;;-3.50;99.90;;;;;;5025674;28;20073;-69
2023/12/03 06:40:19;;;;;;;3.13;2.92;;;-3.50;99.90;;;;;;5027474;28;20513;-69
2023/12/03 06:42:45;;;;;;;1.48;1.40;;;-3.50;99.90;;;;;;5023646;28;20065;-68
2023/12/03 06:45:13;;;;;;;1.35;1.25;;;-3.50;99.90;;;;;;5031026;28;20498;-69
2023/12/03 06:47:39;;;;;;;1.63;1.52;;;-3.50;99.90;;;;;;5032585;28;20485;-68
2023/12/03 06:50:06;;;;;;;2.00;1.90;;;-3.60;99.90;;;;;;5030913;28;20060;-67
2023/12/03 06:52:31;;;;;;;1.65;1.55;;;-3.60;99.90;;;;;;5033141;28;20095;-67
2023/12/03 06:54:57;;;;;;;2.55;2.33;;;-3.60;99.90;;;;;;5025814;28;20037;-68
2023/12/03 06:57:23;;;;;;;3.97;3.63;;;-3.70;99.90;;;;;;5025197;28;20072;-68
2023/12/03 06:59:48;;;;;;;7.20;2.85;;;-3.60;99.90;;;;;;5045608;28;20033;-68
2023/12/03 07:02:14;;;;;;;3.75;3.42;;;-3.60;99.90;;;;;;5035764;23;20445;-70
2023/12/03 07:04:40;;;;;;;2.33;2.20;;;-3.60;99.90;;;;;;5014016;28;20445;-70
2023/12/03 07:07:06;;;;;;;4.38;3.45;;;-3.60;99.90;;;;;;5012340;28;20041;-70
2023/12/03 07:09:31;;;;;;;3.15;2.65;;;-3.60;99.90;;;;;;5009021;28;20064;-71
2023/12/03 07:11:57;;;;;;;3.80;2.38;;;-3.60;99.90;;;;;;4993337;28;20026;-73
2023/12/03 07:14:23;;;;;;;3.35;2.78;;;-3.60;99.90;;;;;;5011994;28;20474;-73
2023/12/03 07:16:49;;;;;;;1.83;1.67;;;-3.60;99.90;;;;;;5013757;28;20026;-72
2023/12/03 07:19:14;;;;;;;0.77;0.77;;;-3.60;99.90;;;;;;4994967;28;20429;-72
2023/12/03 07:21:40;;;;;;;3.00;2.67;;;-3.60;99.90;;;;;;5009528;28;20506;-72
2023/12/03 07:24:07;;;;;;;1.15;1.15;;;-3.60;99.90;;;;;;4995229;28;20509;-72
2023/12/03 07:26:33;;;;;;;1.67;1.58;;;-3.60;99.90;;;;;;5012621;28;20057;-72
2023/12/03 07:28:59;;;;;;;4.00;3.22;;;-3.60;99.90;;;;;;5012579;28;20029;-73
2023/12/03 07:31:25;;;;;;;5.13;3.53;;;-3.60;99.90;;;;;;5013030;28;20026;-72
2023/12/03 07:33:51;;;;;;;2.03;1.92;;;-3.60;99.90;;;;;;5011552;28;20030;-73
2023/12/03 07:36:17;;;;;;;1.58;1.27;;;-3.60;99.90;;;;;;5009567;28;20049;-73
2023/12/03 07:38:42;;;;;;;4.78;4.38;;;-3.60;99.90;;;;;;5013056;28;20030;-73
2023/12/03 07:41:12;;;;;;;4.63;3.53;;;-3.60;99.90;;;;;;5012823;28;20029;-73
2023/12/03 07:43:37;;;;;;;4.68;1.70;;;-3.60;99.90;;;;;;5007719;28;20050;-72
2023/12/03 07:46:04;;;;;;;6.30;2.58;;;-3.60;99.90;;;;;;5011041;28;20036;-73
2023/12/03 07:48:29;;;;;;;3.70;2.55;;;-3.60;99.90;;;;;;5011308;28;20142;-73
2023/12/03 07:50:55;;;;;;;5.55;2.00;;;-3.50;99.90;;;;;;5012181;28;20064;-73
2023/12/03 07:53:21;;;;;;;4.00;3.22;;;-3.50;99.90;;;;;;4995252;28;20660;-73
2023/12/03 07:55:47;;;;;;;6.13;3.45;;;-3.40;99.90;;;;;;4994617;28;20034;-73
2023/12/03 07:58:13;;;;;;;1.95;1.38;;;-3.30;99.90;;;;;;5012036;28;20026;-72
2023/12/03 08:00:39;;;;;;;4.22;2.60;;;-3.30;99.90;;;;;;5012346;28;20033;-73
2023/12/03 08:03:05;;;;;;;5.75;3.35;;;-3.30;99.90;;;;;;5010903;28;20443;-72
2023/12/03 08:05:31;;;;;;;10.32;2.85;;;-3.20;99.90;;;;;;4994528;28;20048;-72
2023/12/03 08:07:58;;;;;;;2.92;2.63;;;-3.10;99.90;;;;;;4991819;28;20640;-75
2023/12/03 08:10:24;;;;;;;3.58;2.40;;;-3.10;99.90;;;;;;5012582;28;20521;-72
2023/12/03 08:12:49;;;;;;;3.80;1.80;;;-3.10;99.90;;;;;;4994419;28;20033;-73
2023/12/03 08:15:15;;;;;;;3.53;3.22;;;-3.00;99.90;;;;;;4994529;28;20066;-73
2023/12/03 08:17:41;;;;;;;3.35;3.05;;;-2.90;99.90;;;;;;4991720;28;20025;-73
2023/12/03 08:20:07;;;;;;;6.47;5.28;;;-2.90;99.90;;;;;;4992465;28;20022;-73
2023/12/03 08:22:33;;;;;;;4.30;2.45;;;-2.70;99.90;;;;;;5011666;28;20386;-73
2023/12/03 08:24:59;;;;;;;5.05;3.58;;;-2.60;99.90;;;;;;4994566;28;20029;-73
2023/12/03 08:27:24;;;;;;;5.75;3.72;;;-2.60;99.90;;;;;;5011680;28;20482;-72
2023/12/03 08:29:50;;;;;;;2.45;1.88;;;-2.60;99.90;;;;;;5011912;28;20530;-73
2023/12/03 08:32:16;;;;;;;1.02;0.85;;;-2.50;99.90;;;;;;4974661;28;20040;-72
2023/12/03 08:34:42;;;;;;;1.35;1.13;;;-2.40;99.90;;;;;;4994357;28;20025;-73
2023/12/03 08:37:07;;;;;;;1.95;1.80;;;-2.40;99.90;;;;;;5011542;28;20045;-72
2023/12/03 08:39:33;;;;;;;5.57;2.03;;;-2.40;99.90;;;;;;5011844;28;20110;-73
2023/12/03 08:41:59;;;;;;;4.53;2.00;;;-2.40;99.90;;;;;;5011687;28;20036;-72
2023/12/03 08:44:25;;;;;;;7.82;3.40;;;-2.30;99.90;;;;;;4994378;28;20014;-73
2023/12/03 08:46:51;;;;;;;3.13;2.88;;;-2.30;99.90;;;;;;4993308;28;20022;-72
2023/12/03 08:49:17;;;;;;;2.78;2.58;;;-2.20;99.90;;;;;;4993627;28;20073;-72
2023/12/03 08:51:44;;;;;;;7.32;3.05;;;-2.20;99.90;;;;;;4993023;28;20026;-73
2023/12/03 08:54:10;;;;;;;2.95;1.73;;;-2.20;99.90;;;;;;4992217;28;20101;-74
2023/12/03 08:56:35;;;;;;;3.25;2.65;;;-2.10;99.90;;;;;;4989843;28;20474;-73
2023/12/03 08:59:01;;;;;;;2.58;2.38;;;-2.10;99.90;;;;;;5009016;28;20029;-73
2023/12/03 09:01:27;;;;;;;2.90;2.70;;;-2.00;99.90;;;;;;5010895;28;20080;-73
2023/12/03 09:03:52;;;;;;;5.07;4.65;;;-1.90;99.90;;;;;;5011166;28;20038;-73
2023/12/03 09:06:18;;;;;;;1.75;1.65;;;-1.90;99.90;;;;;;4993008;28;20113;-73
2023/12/03 09:08:44;;;;;;;6.10;3.47;;;-1.80;99.90;;;;;;5010387;28;20092;-74
2023/12/03 09:11:11;;;;;;;2.25;1.98;;;-1.70;99.90;;;;;;5011059;28;20092;-73
2023/12/03 09:13:36;;;;;;;3.80;3.50;;;-1.60;99.90;;;;;;4993263;28;20096;-73
2023/12/03 09:16:02;;;;;;;4.15;3.53;;;-1.50;99.90;;;;;;4993231;28;20030;-73
2023/12/03 09:18:29;;;;;;;3.33;3.03;;;-1.40;99.90;;;;;;4992900;28;20050;-73
2023/12/03 09:20:55;;;;;;;2.03;1.88;;;-1.30;99.90;;;;;;4993464;28;20076;-73
2023/12/03 09:23:21;;;;;;;4.78;4.22;;;-1.30;99.90;;;;;;4991034;28;20029;-73
2023/12/03 09:25:47;;;;;;;3.63;2.75;;;-1.10;99.90;;;;;;4993056;28;20056;-73
2023/12/03 09:28:13;;;;;;;6.22;3.85;;;-1.10;99.90;;;;;;5010224;28;20041;-74
2023/12/03 09:30:38;;;;;;;2.75;2.45;;;-1.00;99.90;;;;;;4976061;28;20113;-73
2023/12/03 09:33:04;;;;;;;2.30;2.13;;;-0.90;99.90;;;;;;4993154;28;20080;-73
2023/12/03 09:35:31;;;;;;;6.20;2.63;;;-0.70;99.90;;;;;;5009794;28;20056;-74
2023/12/03 09:37:58;;;;;;;1.88;1.77;;;-0.70;99.90;;;;;;4992369;28;20056;-73
2023/12/03 09:40:24;;;;;;;3.85;3.53;;;-0.70;99.90;;;;;;5010151;28;20076;-73
2023/12/03 09:42:52;;;;;;;3.00;1.85;;;-0.30;99.90;;;;;;4992085;28;20165;-73
2023/12/03 09:45:21;;;;;;;3.35;2.92;;;0.40;99.90;;;;;;4992541;28;20076;-73
2023/12/03 09:48:00;;;;;;;5.38;4.30;;;1.20;99.90;;;;;;4992169;28;20030;-74
2023/12/03 09:50:28;;;;;;;11.90;4.88;;;2.50;99.90;;;;;;4993550;28;20656;-74
2023/12/03 09:52:56;;;;;;;23.08;19.40;;;5.70;99.90;;;;;;4992826;28;20026;-74
2023/12/03 09:55:25;;;;;;;8.32;4.80;;;6.20;95.30;;;;;;4976379;28;20094;-72
2023/12/03 09:57:55;;;;;;;11.25;6.45;;;9.10;84.60;;;;;;4992721;28;20025;-72
2023/12/03 10:00:23;;;;;;;14.48;5.32;;;10.20;75.30;;;;;;4996260;28;20030;-72
2023/12/03 10:02:55;;;;;;;8.05;5.85;;;7.20;77.40;;;;;;4969794;28;20038;-72
2023/12/03 10:05:21;;;;;;;11.23;5.45;;;5.60;89.60;;;;;;4997754;28;20091;-73
2023/12/03 10:07:49;;;;;;;10.27;5.18;;;5.10;93.70;;;;;;5014370;28;20030;-71
2023/12/03 10:10:21;;;;;;;12.63;5.78;;;4.20;97.80;;;;;;4997260;28;20029;-74
2023/12/03 10:12:49;;;;;;;7.53;5.07;;;4.20;99.90;;;;;;5014077;28;20029;-70
2023/12/03 10:15:15;;;;;;;11.68;5.72;;;4.90;96.60;;;;;;4985961;28;20399;-73
2023/12/03 10:17:41;;;;;;;13.48;4.57;;;6.60;91.60;;;;;;5014555;28;20041;-73
2023/12/03 10:20:21;;;;;;;9.10;5.50;;;4.80;95.20;;;;;;5012977;28;20074;-73
2023/12/03 10:22:51;;;;;;;12.27;5.63;;;5.60;93.40;;;;;;5010685;28;20040;-74
2023/12/03 10:25:34;;;;;;;15.60;5.85;;;4.30;96.00;;;;;;4991045;28;20128;-72
2023/12/03 10:28:03;;;;;;;11.88;4.65;;;5.10;94.80;;;;;;4989729;28;20060;-73
2023/12/03 10:30:30;;;;;;;14.68;5.85;;;3.70;97.50;;;;;;5004275;28;20416;-73
2023/12/03 10:32:56;;;;;;;15.48;6.80;;;3.40;99.90;;;;;;4987451;28;20061;-57
2023/12/03 10:35:24;;;;;;;5.80;3.35;;;3.10;99.90;;;;;;4991916;28;20072;-73
2023/12/03 10:37:51;;;;;;;5.20;4.47;;;3.20;99.90;;;;;;4999215;28;20054;-73
2023/12/03 10:40:18;;;;;;;6.43;5.00;;;4.10;99.90;;;;;;5001095;28;20049;-73
2023/12/03 10:42:45;;;;;;;6.72;2.95;;;5.50;96.00;;;;;;4995644;28;20026;-72
2023/12/03 10:45:13;;;;;;;8.55;4.35;;;6.60;91.10;;;;;;4994562;28;20030;-72
2023/12/03 10:47:41;;;;;;;6.55;3.47;;;4.40;96.80;;;;;;4998144;28;20034;-72
2023/12/03 10:50:09;;;;;;;9.13;5.15;;;3.70;98.20;;;;;;4995897;28;20065;-74
2023/12/03 10:52:37;;;;;;;9.73;5.40;;;3.90;98.40;;;;;;5015652;28;20347;-74
2023/12/03 10:55:05;;;;;;;8.00;4.70;;;5.40;94.80;;;;;;5014463;28;20026;-74
2023/12/03 10:57:50;;;;;;;8.77;4.00;;;6.20;90.60;;;;;;4997774;28;20556;-73
2023/12/03 11:00:19;;;;;;;11.60;5.50;;;6.70;89.50;;;;;;4995586;28;20046;-73
2023/12/03 11:02:50;;;;;;;14.45;7.43;;;4.40;95.90;;;;;;4980579;28;20034;-73
2023/12/03 11:05:31;;;;;;;8.10;3.83;;;4.80;98.20;;;;;;4997579;28;20030;-74
2023/12/03 11:08:01;;;;;;;6.95;4.13;;;4.50;96.10;;;;;;4997402;28;20055;-75
2023/12/03 11:10:27;;;;;;;6.22;4.18;;;5.30;95.70;;;;;;4987759;28;20045;-74
2023/12/03 11:12:54;;;;;;;11.40;4.72;;;5.80;91.70;;;;;;4996937;28;20564;-74
2023/12/03 11:15:21;;;;;;;7.25;4.20;;;4.50;93.90;;;;;;4995486;28;20069;-73
2023/12/03 11:17:49;;;;;;;11.70;5.72;;;5.30;94.20;;;;;;4996553;28;20037;-74
2023/12/03 11:20:33;;;;;;;9.25;4.47;;;5.20;94.40;;;;;;4996190;28;20022;-74
2023/12/03 11:23:58;;;;;;;5.55;4.78;;;6.60;90.80;;;;;;4997550;28;20080;-73
2023/12/03 11:26:25;;;;;;;9.82;4.63;;;5.50;92.10;;;;;;4998276;28;20040;-74
2023/12/03 11:28:57;;;;;;;7.85;3.60;;;5.10;92.60;;;;;;5013582;28;20022;-74
2023/12/03 11:31:24;;;;;;;7.38;4.80;;;4.80;94.80;;;;;;4996149;28;20029;-73
2023/12/03 11:34:00;;;;;;;10.93;4.32;;;4.80;95.10;;;;;;5013829;28;20028;-74
2023/12/03 11:36:49;;;;;;;6.18;2.67;;;5.80;92.10;;;;;;4995713;28;20026;-74
2023/12/03 11:39:15;;;;;;;11.18;4.82;;;4.60;94.30;;;;;;4995764;28;20022;-74
2023/12/03 11:41:44;;;;;;;8.30;4.75;;;4.30;96.40;;;;;;4995758;28;20025;-75
2023/12/03 11:44:18;;;;;;;9.27;5.18;;;4.00;97.10;;;;;;5013592;28;20048;-73
2023/12/03 11:47:00;;;;;;;14.57;4.50;;;4.40;96.70;;;;;;5014016;28;20056;-73
2023/12/03 11:49:29;;;;;;;11.23;4.78;;;6.20;94.00;;;;;;5013337;28;20105;-73
2023/12/03 11:51:55;;;;;;;8.63;3.35;;;6.10;92.80;;;;;;4995937;28;20042;-73
2023/12/03 11:54:28;;;;;;;11.07;5.85;;;7.00;85.10;;;;;;4995497;28;20030;-73
2023/12/03 11:56:54;;;;;;;7.10;4.97;;;5.30;93.80;;;;;;4995863;28;20041;-73
2023/12/03 11:59:21;;;;;;;8.07;4.38;;;5.00;92.90;;;;;;4995538;28;20025;-73
2023/12/03 12:01:47;;;;;;;12.98;3.95;;;4.90;93.60;;;;;;4994670;28;20121;-73
2023/12/03 12:04:23;;;;;;;9.15;4.78;;;3.90;96.80;;;;;;4995393;28;20515;-73
2023/12/03 12:06:53;;;;;;;6.07;3.20;;;4.80;94.80;;;;;;4993022;28;20410;-74
2023/12/03 12:09:23;;;;;;;4.80;3.30;;;4.90;94.40;;;;;;4994094;28;20018;-74
2023/12/03 12:11:50;;;;;;;7.30;4.00;;;4.90;94.40;;;;;;4990236;28;20461;-73
2023/12/03 12:14:19;;;;;;;7.90;3.05;;;5.80;93.20;;;;;;5010274;28;20026;-75
2023/12/03 12:16:46;;;;;;;7.43;3.72;;;6.50;92.00;;;;;;4991892;28;20049;-74
2023/12/03 12:19:12;;;;;;;8.02;3.08;;;7.10;85.10;;;;;;4995176;28;20156;-74
2023/12/03 12:21:56;;;;;;;5.97;2.45;;;6.40;86.40;;;;;;4991191;28;20037;-74
2023/12/03 12:24:22;;;;;;;10.88;5.50;;;6.00;85.90;;;;;;5005552;28;20029;-73
2023/12/03 12:26:50;;;;;;;10.95;4.28;;;4.70;93.20;;;;;;5006349;28;20390;-73
2023/12/03 12:29:17;;;;;;;9.43;4.97;;;5.30;94.60;;;;;;5005259;28;20112;-73
2023/12/03 12:31:43;;;;;;;6.65;3.47;;;4.50;94.00;;;;;;4989623;28;20073;-73
2023/12/03 12:34:11;;;;;;;6.18;4.60;;;4.00;95.50;;;;;;4998283;28;20061;-74
2023/12/03 12:36:37;;;;;;;2.50;1.85;;;4.20;95.90;;;;;;5008919;28;20482;-73
2023/12/03 12:39:03;;;;;;;5.35;3.75;;;4.20;95.90;;;;;;4994870;28;20521;-73
2023/12/03 12:41:39;;;;;;;7.50;2.53;;;4.90;94.60;;;;;;4994560;28;20034;-72
2023/12/03 12:44:04;;;;;;;5.80;3.38;;;4.60;95.50;;;;;;4995532;28;20018;-73
2023/12/03 12:46:31;;;;;;;8.23;3.33;;;5.20;94.30;;;;;;4995161;28;20060;-72